sensor_id;sensor_type;location;lat;lon;timestamp;P1;durP1;ratioP1;P2;durP2;ratioP2
6013;SDS011;3035;49.928;8.410;2023-08-06T00:00:22;5.63;;;3.80;;
6013;SDS011;3035;49.928;8.410;2023-08-06T00:02:50;8.27;;;3.50;;
6013;SDS011;3035;49.928;8.410;2023-08-06T00:05:18;5.80;;;3.60;;
6013;SDS011;3035;49.928;8.410;2023-08-06T00:07:46;8.10;;;4.60;;
6013;SDS011;3035;49.928;8.410;2023-08-06T00:10:16;5.27;;;3.83;;
6013;SDS011;3035;49.928;8.410;2023-08-06T00:12:45;4.10;;;3.50;;
6013;SDS011;3035;49.928;8.410;2023-08-06T00:15:13;5.53;;;4.83;;
6013;SDS011;3035;49.928;8.410;2023-08-06T00:17:42;16.53;;;5.10;;
6013;SDS011;3035;49.928;8.410;2023-08-06T00:20:12;6.80;;;3.50;;
6013;SDS011;3035;49.928;8.410;2023-08-06T00:22:41;5.17;;;3.97;;
6013;SDS011;3035;49.928;8.410;2023-08-06T00:25:10;11.07;;;3.90;;
6013;SDS011;3035;49.928;8.410;2023-08-06T00:27:38;6.33;;;3.70;;
6013;SDS011;3035;49.928;8.410;2023-08-06T00:30:06;5.43;;;3.80;;
6013;SDS011;3035;49.928;8.410;2023-08-06T00:32:36;7.83;;;3.70;;
6013;SDS011;3035;49.928;8.410;2023-08-06T00:35:05;13.30;;;3.43;;
6013;SDS011;3035;49.928;8.410;2023-08-06T00:37:35;4.40;;;4.00;;
6013;SDS011;3035;49.928;8.410;2023-08-06T00:40:04;6.03;;;4.27;;
6013;SDS011;3035;49.928;8.410;2023-08-06T00:42:33;8.03;;;3.53;;
6013;SDS011;3035;49.928;8.410;2023-08-06T00:45:01;9.80;;;4.13;;
6013;SDS011;3035;49.928;8.410;2023-08-06T00:47:30;4.57;;;3.80;;
6013;SDS011;3035;49.928;8.410;2023-08-06T00:49:58;10.73;;;3.67;;
6013;SDS011;3035;49.928;8.410;2023-08-06T00:52:26;7.67;;;3.70;;
6013;SDS011;3035;49.928;8.410;2023-08-06T00:54:55;10.17;;;3.73;;
6013;SDS011;3035;49.928;8.410;2023-08-06T00:57:23;13.80;;;4.40;;
6013;SDS011;3035;49.928;8.410;2023-08-06T00:59:51;6.70;;;4.00;;
6013;SDS011;3035;49.928;8.410;2023-08-06T01:02:19;9.77;;;4.00;;
6013;SDS011;3035;49.928;8.410;2023-08-06T01:04:48;14.23;;;3.80;;
6013;SDS011;3035;49.928;8.410;2023-08-06T01:07:27;3.60;;;3.20;;
6013;SDS011;3035;49.928;8.410;2023-08-06T01:13:01;11.30;;;4.47;;
6013;SDS011;3035;49.928;8.410;2023-08-06T01:15:35;4.73;;;3.60;;
6013;SDS011;3035;49.928;8.410;2023-08-06T01:18:11;3.60;;;3.30;;
6013;SDS011;3035;49.928;8.410;2023-08-06T01:20:40;8.10;;;3.80;;
6013;SDS011;3035;49.928;8.410;2023-08-06T01:23:09;13.47;;;4.73;;
6013;SDS011;3035;49.928;8.410;2023-08-06T01:25:43;8.20;;;4.63;;
6013;SDS011;3035;49.928;8.410;2023-08-06T01:31:15;6.03;;;4.77;;
6013;SDS011;3035;49.928;8.410;2023-08-06T01:33:43;8.83;;;3.60;;
6013;SDS011;3035;49.928;8.410;2023-08-06T01:36:11;9.17;;;4.90;;
6013;SDS011;3035;49.928;8.410;2023-08-06T01:38:39;8.97;;;4.03;;
6013;SDS011;3035;49.928;8.410;2023-08-06T01:41:08;13.27;;;4.83;;
6013;SDS011;3035;49.928;8.410;2023-08-06T01:43:36;10.80;;;3.47;;
6013;SDS011;3035;49.928;8.410;2023-08-06T01:46:05;8.83;;;3.70;;
6013;SDS011;3035;49.928;8.410;2023-08-06T01:48:33;6.50;;;4.50;;
6013;SDS011;3035;49.928;8.410;2023-08-06T01:51:03;11.93;;;4.47;;
6013;SDS011;3035;49.928;8.410;2023-08-06T01:53:31;8.33;;;4.00;;
6013;SDS011;3035;49.928;8.410;2023-08-06T01:55:59;7.57;;;3.70;;
6013;SDS011;3035;49.928;8.410;2023-08-06T01:58:28;5.17;;;3.80;;
6013;SDS011;3035;49.928;8.410;2023-08-06T02:00:56;6.70;;;3.70;;
6013;SDS011;3035;49.928;8.410;2023-08-06T02:03:24;5.30;;;3.73;;
6013;SDS011;3035;49.928;8.410;2023-08-06T02:05:52;7.43;;;4.20;;
6013;SDS011;3035;49.928;8.410;2023-08-06T02:08:20;15.70;;;4.00;;
6013;SDS011;3035;49.928;8.410;2023-08-06T02:10:49;8.27;;;4.37;;
6013;SDS011;3035;49.928;8.410;2023-08-06T02:13:17;4.30;;;3.73;;
6013;SDS011;3035;49.928;8.410;2023-08-06T02:15:45;7.73;;;4.00;;
6013;SDS011;3035;49.928;8.410;2023-08-06T02:18:14;11.13;;;3.83;;
6013;SDS011;3035;49.928;8.410;2023-08-06T02:20:42;7.87;;;4.10;;
6013;SDS011;3035;49.928;8.410;2023-08-06T02:23:11;4.23;;;3.60;;
6013;SDS011;3035;49.928;8.410;2023-08-06T02:25:39;5.93;;;3.90;;
6013;SDS011;3035;49.928;8.410;2023-08-06T02:28:07;6.37;;;3.83;;
6013;SDS011;3035;49.928;8.410;2023-08-06T02:30:35;9.90;;;4.43;;
6013;SDS011;3035;49.928;8.410;2023-08-06T02:33:03;11.23;;;4.27;;
6013;SDS011;3035;49.928;8.410;2023-08-06T02:35:32;6.67;;;3.30;;
6013;SDS011;3035;49.928;8.410;2023-08-06T02:38:00;5.23;;;3.53;;
6013;SDS011;3035;49.928;8.410;2023-08-06T02:40:28;3.83;;;3.10;;
6013;SDS011;3035;49.928;8.410;2023-08-06T02:42:56;11.13;;;3.00;;
6013;SDS011;3035;49.928;8.410;2023-08-06T02:45:24;6.13;;;2.73;;
6013;SDS011;3035;49.928;8.410;2023-08-06T02:47:53;9.60;;;3.20;;
6013;SDS011;3035;49.928;8.410;2023-08-06T02:50:23;6.67;;;3.53;;
6013;SDS011;3035;49.928;8.410;2023-08-06T02:52:52;30.50;;;3.47;;
6013;SDS011;3035;49.928;8.410;2023-08-06T02:55:20;7.23;;;3.50;;
6013;SDS011;3035;49.928;8.410;2023-08-06T02:57:48;4.20;;;3.20;;
6013;SDS011;3035;49.928;8.410;2023-08-06T03:00:16;4.27;;;3.30;;
6013;SDS011;3035;49.928;8.410;2023-08-06T03:02:44;14.63;;;3.50;;
6013;SDS011;3035;49.928;8.410;2023-08-06T03:05:13;3.33;;;2.80;;
6013;SDS011;3035;49.928;8.410;2023-08-06T03:07:41;7.27;;;3.00;;
6013;SDS011;3035;49.928;8.410;2023-08-06T03:10:09;6.07;;;3.43;;
6013;SDS011;3035;49.928;8.410;2023-08-06T03:12:38;7.43;;;2.97;;
6013;SDS011;3035;49.928;8.410;2023-08-06T03:15:06;17.07;;;3.00;;
6013;SDS011;3035;49.928;8.410;2023-08-06T03:17:35;9.33;;;2.73;;
6013;SDS011;3035;49.928;8.410;2023-08-06T03:20:03;11.73;;;3.20;;
6013;SDS011;3035;49.928;8.410;2023-08-06T03:22:32;3.70;;;3.00;;
6013;SDS011;3035;49.928;8.410;2023-08-06T03:25:01;7.03;;;3.27;;
6013;SDS011;3035;49.928;8.410;2023-08-06T03:27:30;22.53;;;3.53;;
6013;SDS011;3035;49.928;8.410;2023-08-06T03:29:59;4.27;;;3.53;;
6013;SDS011;3035;49.928;8.410;2023-08-06T03:32:27;7.43;;;3.50;;
6013;SDS011;3035;49.928;8.410;2023-08-06T03:34:56;3.53;;;2.70;;
6013;SDS011;3035;49.928;8.410;2023-08-06T03:37:24;6.80;;;2.70;;
6013;SDS011;3035;49.928;8.410;2023-08-06T03:39:53;4.93;;;2.30;;
6013;SDS011;3035;49.928;8.410;2023-08-06T03:42:21;13.23;;;2.40;;
6013;SDS011;3035;49.928;8.410;2023-08-06T03:44:49;7.20;;;3.33;;
6013;SDS011;3035;49.928;8.410;2023-08-06T03:47:18;3.93;;;2.60;;
6013;SDS011;3035;49.928;8.410;2023-08-06T03:49:47;4.73;;;2.67;;
6013;SDS011;3035;49.928;8.410;2023-08-06T03:52:15;4.60;;;2.50;;
6013;SDS011;3035;49.928;8.410;2023-08-06T03:54:43;18.13;;;2.63;;
6013;SDS011;3035;49.928;8.410;2023-08-06T03:57:12;30.03;;;3.10;;
6013;SDS011;3035;49.928;8.410;2023-08-06T03:59:40;6.20;;;2.17;;
6013;SDS011;3035;49.928;8.410;2023-08-06T04:02:08;5.90;;;2.43;;
6013;SDS011;3035;49.928;8.410;2023-08-06T04:04:36;9.80;;;2.97;;
6013;SDS011;3035;49.928;8.410;2023-08-06T04:07:04;6.37;;;2.07;;
6013;SDS011;3035;49.928;8.410;2023-08-06T04:09:33;9.50;;;1.70;;
6013;SDS011;3035;49.928;8.410;2023-08-06T04:12:01;3.53;;;1.83;;
6013;SDS011;3035;49.928;8.410;2023-08-06T04:14:29;5.50;;;1.57;;
6013;SDS011;3035;49.928;8.410;2023-08-06T04:16:57;2.30;;;1.30;;
6013;SDS011;3035;49.928;8.410;2023-08-06T04:19:25;6.40;;;1.57;;
6013;SDS011;3035;49.928;8.410;2023-08-06T04:21:54;3.50;;;1.70;;
6013;SDS011;3035;49.928;8.410;2023-08-06T04:24:22;5.13;;;1.10;;
6013;SDS011;3035;49.928;8.410;2023-08-06T04:26:50;8.33;;;1.83;;
6013;SDS011;3035;49.928;8.410;2023-08-06T04:29:18;14.20;;;1.77;;
6013;SDS011;3035;49.928;8.410;2023-08-06T04:31:47;2.80;;;1.40;;
6013;SDS011;3035;49.928;8.410;2023-08-06T04:34:15;5.03;;;1.60;;
6013;SDS011;3035;49.928;8.410;2023-08-06T04:36:43;3.67;;;1.77;;
6013;SDS011;3035;49.928;8.410;2023-08-06T04:39:11;2.20;;;0.90;;
6013;SDS011;3035;49.928;8.410;2023-08-06T04:41:40;2.53;;;1.37;;
6013;SDS011;3035;49.928;8.410;2023-08-06T04:44:08;2.40;;;1.30;;
6013;SDS011;3035;49.928;8.410;2023-08-06T04:46:36;4.83;;;1.33;;
6013;SDS011;3035;49.928;8.410;2023-08-06T04:49:04;2.80;;;1.50;;
6013;SDS011;3035;49.928;8.410;2023-08-06T04:51:33;2.80;;;1.40;;
6013;SDS011;3035;49.928;8.410;2023-08-06T04:54:01;5.60;;;1.50;;
6013;SDS011;3035;49.928;8.410;2023-08-06T04:56:30;5.23;;;1.50;;
6013;SDS011;3035;49.928;8.410;2023-08-06T04:58:58;6.37;;;1.77;;
6013;SDS011;3035;49.928;8.410;2023-08-06T05:01:28;8.60;;;1.33;;
6013;SDS011;3035;49.928;8.410;2023-08-06T05:03:57;3.10;;;1.80;;
6013;SDS011;3035;49.928;8.410;2023-08-06T05:06:25;3.90;;;1.60;;
6013;SDS011;3035;49.928;8.410;2023-08-06T05:08:54;3.60;;;1.80;;
6013;SDS011;3035;49.928;8.410;2023-08-06T05:11:22;4.57;;;2.00;;
6013;SDS011;3035;49.928;8.410;2023-08-06T05:13:51;1.50;;;1.30;;
6013;SDS011;3035;49.928;8.410;2023-08-06T05:16:19;3.43;;;1.60;;
6013;SDS011;3035;49.928;8.410;2023-08-06T05:18:47;3.57;;;2.03;;
6013;SDS011;3035;49.928;8.410;2023-08-06T05:21:15;4.50;;;1.30;;
6013;SDS011;3035;49.928;8.410;2023-08-06T05:23:43;2.33;;;1.40;;
6013;SDS011;3035;49.928;8.410;2023-08-06T05:26:12;2.90;;;1.60;;
6013;SDS011;3035;49.928;8.410;2023-08-06T05:28:40;1.40;;;1.30;;
6013;SDS011;3035;49.928;8.410;2023-08-06T05:31:08;1.87;;;1.30;;
6013;SDS011;3035;49.928;8.410;2023-08-06T05:33:36;10.37;;;1.63;;
6013;SDS011;3035;49.928;8.410;2023-08-06T05:36:04;5.57;;;1.80;;
6013;SDS011;3035;49.928;8.410;2023-08-06T05:38:33;7.70;;;1.60;;
6013;SDS011;3035;49.928;8.410;2023-08-06T05:41:01;1.30;;;1.10;;
6013;SDS011;3035;49.928;8.410;2023-08-06T05:43:29;2.10;;;1.17;;
6013;SDS011;3035;49.928;8.410;2023-08-06T05:45:57;2.07;;;0.90;;
6013;SDS011;3035;49.928;8.410;2023-08-06T05:48:25;2.40;;;1.20;;
6013;SDS011;3035;49.928;8.410;2023-08-06T05:50:54;1.30;;;0.90;;
6013;SDS011;3035;49.928;8.410;2023-08-06T05:53:22;3.83;;;1.20;;
6013;SDS011;3035;49.928;8.410;2023-08-06T05:55:50;5.23;;;1.00;;
6013;SDS011;3035;49.928;8.410;2023-08-06T05:58:18;1.60;;;1.10;;
6013;SDS011;3035;49.928;8.410;2023-08-06T06:00:47;1.00;;;0.70;;
6013;SDS011;3035;49.928;8.410;2023-08-06T06:03:16;2.23;;;0.80;;
6013;SDS011;3035;49.928;8.410;2023-08-06T06:05:44;0.90;;;0.60;;
6013;SDS011;3035;49.928;8.410;2023-08-06T06:08:12;5.00;;;0.70;;
6013;SDS011;3035;49.928;8.410;2023-08-06T06:10:41;5.60;;;0.97;;
6013;SDS011;3035;49.928;8.410;2023-08-06T06:13:09;1.10;;;0.70;;
6013;SDS011;3035;49.928;8.410;2023-08-06T06:15:37;1.60;;;0.90;;
6013;SDS011;3035;49.928;8.410;2023-08-06T06:18:06;2.90;;;0.80;;
6013;SDS011;3035;49.928;8.410;2023-08-06T06:20:34;2.10;;;0.90;;
6013;SDS011;3035;49.928;8.410;2023-08-06T06:23:04;2.43;;;0.80;;
6013;SDS011;3035;49.928;8.410;2023-08-06T06:25:33;1.80;;;1.00;;
6013;SDS011;3035;49.928;8.410;2023-08-06T06:28:01;2.33;;;0.87;;
6013;SDS011;3035;49.928;8.410;2023-08-06T06:30:29;3.10;;;0.90;;
6013;SDS011;3035;49.928;8.410;2023-08-06T06:32:58;3.93;;;0.90;;
6013;SDS011;3035;49.928;8.410;2023-08-06T06:35:26;2.80;;;0.77;;
6013;SDS011;3035;49.928;8.410;2023-08-06T06:37:54;1.60;;;0.80;;
6013;SDS011;3035;49.928;8.410;2023-08-06T06:40:22;12.00;;;1.00;;
6013;SDS011;3035;49.928;8.410;2023-08-06T06:42:50;1.33;;;0.90;;
6013;SDS011;3035;49.928;8.410;2023-08-06T06:45:19;1.87;;;0.87;;
6013;SDS011;3035;49.928;8.410;2023-08-06T06:47:47;1.23;;;0.70;;
6013;SDS011;3035;49.928;8.410;2023-08-06T06:50:15;14.93;;;1.13;;
6013;SDS011;3035;49.928;8.410;2023-08-06T06:52:43;2.90;;;0.83;;
6013;SDS011;3035;49.928;8.410;2023-08-06T06:55:11;0.90;;;0.70;;
6013;SDS011;3035;49.928;8.410;2023-08-06T06:57:40;1.30;;;1.03;;
6013;SDS011;3035;49.928;8.410;2023-08-06T07:00:08;3.20;;;1.10;;
6013;SDS011;3035;49.928;8.410;2023-08-06T07:02:37;2.40;;;0.90;;
6013;SDS011;3035;49.928;8.410;2023-08-06T07:05:05;1.50;;;0.97;;
6013;SDS011;3035;49.928;8.410;2023-08-06T07:07:33;3.10;;;0.90;;
6013;SDS011;3035;49.928;8.410;2023-08-06T07:10:01;1.97;;;0.90;;
6013;SDS011;3035;49.928;8.410;2023-08-06T07:12:30;3.93;;;0.90;;
6013;SDS011;3035;49.928;8.410;2023-08-06T07:14:58;5.03;;;1.00;;
6013;SDS011;3035;49.928;8.410;2023-08-06T07:17:26;1.00;;;0.70;;
6013;SDS011;3035;49.928;8.410;2023-08-06T07:19:54;1.90;;;0.90;;
6013;SDS011;3035;49.928;8.410;2023-08-06T07:22:22;1.50;;;0.70;;
6013;SDS011;3035;49.928;8.410;2023-08-06T07:24:51;3.83;;;0.90;;
6013;SDS011;3035;49.928;8.410;2023-08-06T07:27:19;5.60;;;0.83;;
6013;SDS011;3035;49.928;8.410;2023-08-06T07:29:47;0.90;;;0.70;;
6013;SDS011;3035;49.928;8.410;2023-08-06T07:32:15;2.43;;;0.80;;
6013;SDS011;3035;49.928;8.410;2023-08-06T07:34:44;2.93;;;0.77;;
6013;SDS011;3035;49.928;8.410;2023-08-06T07:37:12;1.53;;;0.80;;
6013;SDS011;3035;49.928;8.410;2023-08-06T07:39:40;4.93;;;0.80;;
6013;SDS011;3035;49.928;8.410;2023-08-06T07:42:08;2.40;;;0.90;;
6013;SDS011;3035;49.928;8.410;2023-08-06T07:44:36;6.73;;;1.00;;
6013;SDS011;3035;49.928;8.410;2023-08-06T07:47:05;9.20;;;1.00;;
6013;SDS011;3035;49.928;8.410;2023-08-06T07:49:33;5.70;;;0.83;;
6013;SDS011;3035;49.928;8.410;2023-08-06T07:52:01;0.90;;;0.70;;
6013;SDS011;3035;49.928;8.410;2023-08-06T07:54:29;1.10;;;0.80;;
6013;SDS011;3035;49.928;8.410;2023-08-06T07:56:57;3.77;;;1.07;;
6013;SDS011;3035;49.928;8.410;2023-08-06T07:59:26;1.97;;;0.93;;
6013;SDS011;3035;49.928;8.410;2023-08-06T08:01:54;1.10;;;0.80;;
6013;SDS011;3035;49.928;8.410;2023-08-06T08:04:23;1.30;;;0.90;;
6013;SDS011;3035;49.928;8.410;2023-08-06T08:06:50;2.03;;;1.03;;
6013;SDS011;3035;49.928;8.410;2023-08-06T08:09:20;1.40;;;0.90;;
6013;SDS011;3035;49.928;8.410;2023-08-06T08:11:48;1.50;;;1.00;;
6013;SDS011;3035;49.928;8.410;2023-08-06T08:14:17;1.43;;;0.80;;
6013;SDS011;3035;49.928;8.410;2023-08-06T08:16:45;1.83;;;1.00;;
6013;SDS011;3035;49.928;8.410;2023-08-06T08:19:14;2.07;;;1.00;;
6013;SDS011;3035;49.928;8.410;2023-08-06T08:21:43;1.93;;;0.90;;
6013;SDS011;3035;49.928;8.410;2023-08-06T08:24:12;2.10;;;0.90;;
6013;SDS011;3035;49.928;8.410;2023-08-06T08:26:41;1.10;;;0.80;;
6013;SDS011;3035;49.928;8.410;2023-08-06T08:29:10;1.20;;;0.83;;
6013;SDS011;3035;49.928;8.410;2023-08-06T08:31:39;1.50;;;1.07;;
6013;SDS011;3035;49.928;8.410;2023-08-06T08:34:08;2.13;;;1.20;;
6013;SDS011;3035;49.928;8.410;2023-08-06T08:36:37;0.90;;;0.73;;
6013;SDS011;3035;49.928;8.410;2023-08-06T08:39:06;1.17;;;1.03;;
6013;SDS011;3035;49.928;8.410;2023-08-06T08:41:35;2.90;;;0.90;;
6013;SDS011;3035;49.928;8.410;2023-08-06T08:44:03;6.00;;;1.00;;
6013;SDS011;3035;49.928;8.410;2023-08-06T08:46:32;1.97;;;0.97;;
6013;SDS011;3035;49.928;8.410;2023-08-06T08:49:00;5.63;;;0.90;;
6013;SDS011;3035;49.928;8.410;2023-08-06T08:51:30;1.37;;;0.93;;
6013;SDS011;3035;49.928;8.410;2023-08-06T08:53:58;1.00;;;0.80;;
6013;SDS011;3035;49.928;8.410;2023-08-06T08:56:26;1.10;;;0.80;;
6013;SDS011;3035;49.928;8.410;2023-08-06T08:58:56;2.43;;;1.60;;
6013;SDS011;3035;49.928;8.410;2023-08-06T09:01:25;1.10;;;0.70;;
6013;SDS011;3035;49.928;8.410;2023-08-06T09:03:54;1.10;;;0.80;;
6013;SDS011;3035;49.928;8.410;2023-08-06T09:06:23;2.23;;;0.80;;
6013;SDS011;3035;49.928;8.410;2023-08-06T09:11:42;1.07;;;0.80;;
6013;SDS011;3035;49.928;8.410;2023-08-06T09:14:11;4.10;;;0.90;;
6013;SDS011;3035;49.928;8.410;2023-08-06T09:16:39;1.40;;;0.77;;
6013;SDS011;3035;49.928;8.410;2023-08-06T09:19:09;3.90;;;0.97;;
6013;SDS011;3035;49.928;8.410;2023-08-06T09:21:38;1.00;;;0.77;;
6013;SDS011;3035;49.928;8.410;2023-08-06T09:24:07;1.50;;;1.20;;
6013;SDS011;3035;49.928;8.410;2023-08-06T09:26:37;2.67;;;0.90;;
6013;SDS011;3035;49.928;8.410;2023-08-06T09:29:05;1.77;;;0.93;;
6013;SDS011;3035;49.928;8.410;2023-08-06T09:31:41;1.63;;;0.80;;
6013;SDS011;3035;49.928;8.410;2023-08-06T09:34:16;1.43;;;0.83;;
6013;SDS011;3035;49.928;8.410;2023-08-06T09:36:46;0.90;;;0.70;;
6013;SDS011;3035;49.928;8.410;2023-08-06T09:39:16;4.37;;;0.80;;
6013;SDS011;3035;49.928;8.410;2023-08-06T09:41:45;1.50;;;0.90;;
6013;SDS011;3035;49.928;8.410;2023-08-06T09:44:16;2.33;;;0.87;;
6013;SDS011;3035;49.928;8.410;2023-08-06T09:46:51;1.33;;;0.80;;
6013;SDS011;3035;49.928;8.410;2023-08-06T09:49:19;0.90;;;0.70;;
6013;SDS011;3035;49.928;8.410;2023-08-06T09:51:47;4.10;;;0.80;;
6013;SDS011;3035;49.928;8.410;2023-08-06T09:54:16;3.63;;;1.03;;
6013;SDS011;3035;49.928;8.410;2023-08-06T09:56:45;1.27;;;0.90;;
6013;SDS011;3035;49.928;8.410;2023-08-06T09:59:14;4.20;;;0.90;;
6013;SDS011;3035;49.928;8.410;2023-08-06T10:01:42;1.20;;;0.80;;
6013;SDS011;3035;49.928;8.410;2023-08-06T10:04:11;1.20;;;0.73;;
6013;SDS011;3035;49.928;8.410;2023-08-06T10:06:39;2.20;;;0.80;;
6013;SDS011;3035;49.928;8.410;2023-08-06T10:09:08;0.83;;;0.70;;
6013;SDS011;3035;49.928;8.410;2023-08-06T10:11:38;0.90;;;0.80;;
6013;SDS011;3035;49.928;8.410;2023-08-06T10:14:08;6.53;;;0.70;;
6013;SDS011;3035;49.928;8.410;2023-08-06T10:16:36;0.90;;;0.67;;
6013;SDS011;3035;49.928;8.410;2023-08-06T10:19:04;3.57;;;0.70;;
6013;SDS011;3035;49.928;8.410;2023-08-06T10:21:33;2.60;;;0.90;;
6013;SDS011;3035;49.928;8.410;2023-08-06T10:24:03;1.00;;;0.83;;
6013;SDS011;3035;49.928;8.410;2023-08-06T10:26:32;1.67;;;0.80;;
6013;SDS011;3035;49.928;8.410;2023-08-06T10:29:00;1.00;;;0.80;;
6013;SDS011;3035;49.928;8.410;2023-08-06T10:34:21;2.40;;;0.70;;
6013;SDS011;3035;49.928;8.410;2023-08-06T10:36:50;2.70;;;0.70;;
6013;SDS011;3035;49.928;8.410;2023-08-06T10:39:19;0.90;;;0.63;;
6013;SDS011;3035;49.928;8.410;2023-08-06T10:41:47;3.73;;;0.70;;
6013;SDS011;3035;49.928;8.410;2023-08-06T10:44:16;1.07;;;0.80;;
6013;SDS011;3035;49.928;8.410;2023-08-06T10:46:44;1.03;;;0.93;;
6013;SDS011;3035;49.928;8.410;2023-08-06T10:49:12;0.90;;;0.60;;
6013;SDS011;3035;49.928;8.410;2023-08-06T10:51:41;1.27;;;0.70;;
6013;SDS011;3035;49.928;8.410;2023-08-06T10:54:09;1.30;;;0.70;;
6013;SDS011;3035;49.928;8.410;2023-08-06T10:56:39;2.03;;;0.70;;
6013;SDS011;3035;49.928;8.410;2023-08-06T10:59:06;0.90;;;0.60;;
6013;SDS011;3035;49.928;8.410;2023-08-06T11:01:34;1.00;;;0.63;;
6013;SDS011;3035;49.928;8.410;2023-08-06T11:04:02;0.90;;;0.60;;
6013;SDS011;3035;49.928;8.410;2023-08-06T11:06:31;3.47;;;0.70;;
6013;SDS011;3035;49.928;8.410;2023-08-06T11:08:59;1.20;;;0.60;;
6013;SDS011;3035;49.928;8.410;2023-08-06T11:11:27;1.47;;;0.60;;
6013;SDS011;3035;49.928;8.410;2023-08-06T11:13:55;2.60;;;0.60;;
6013;SDS011;3035;49.928;8.410;2023-08-06T11:16:23;2.80;;;0.60;;
6013;SDS011;3035;49.928;8.410;2023-08-06T11:18:52;1.43;;;0.60;;
6013;SDS011;3035;49.928;8.410;2023-08-06T11:21:20;0.87;;;0.50;;
6013;SDS011;3035;49.928;8.410;2023-08-06T11:23:48;0.80;;;0.60;;
6013;SDS011;3035;49.928;8.410;2023-08-06T11:26:20;0.90;;;0.60;;
6013;SDS011;3035;49.928;8.410;2023-08-06T11:28:47;1.30;;;0.50;;
6013;SDS011;3035;49.928;8.410;2023-08-06T11:31:19;3.37;;;0.60;;
6013;SDS011;3035;49.928;8.410;2023-08-06T11:33:46;6.83;;;0.60;;
6013;SDS011;3035;49.928;8.410;2023-08-06T11:36:15;0.80;;;0.60;;
6013;SDS011;3035;49.928;8.410;2023-08-06T11:38:43;3.20;;;0.70;;
6013;SDS011;3035;49.928;8.410;2023-08-06T11:41:11;0.80;;;0.60;;
6013;SDS011;3035;49.928;8.410;2023-08-06T11:43:39;1.07;;;0.63;;
6013;SDS011;3035;49.928;8.410;2023-08-06T11:46:07;2.50;;;0.70;;
6013;SDS011;3035;49.928;8.410;2023-08-06T11:48:50;1.83;;;1.10;;
6013;SDS011;3035;49.928;8.410;2023-08-06T11:51:12;1.30;;;0.60;;
6013;SDS011;3035;49.928;8.410;2023-08-06T11:53:38;3.90;;;0.60;;
6013;SDS011;3035;49.928;8.410;2023-08-06T11:56:07;2.90;;;1.00;;
6013;SDS011;3035;49.928;8.410;2023-08-06T11:58:35;1.33;;;0.70;;
6013;SDS011;3035;49.928;8.410;2023-08-06T12:01:03;1.97;;;0.80;;
6013;SDS011;3035;49.928;8.410;2023-08-06T12:03:31;1.20;;;0.70;;
6013;SDS011;3035;49.928;8.410;2023-08-06T12:05:59;1.10;;;0.70;;
6013;SDS011;3035;49.928;8.410;2023-08-06T12:08:28;5.80;;;1.00;;
6013;SDS011;3035;49.928;8.410;2023-08-06T12:10:56;0.90;;;0.70;;
6013;SDS011;3035;49.928;8.410;2023-08-06T12:13:24;1.00;;;0.70;;
6013;SDS011;3035;49.928;8.410;2023-08-06T12:15:54;7.13;;;0.90;;
6013;SDS011;3035;49.928;8.410;2023-08-06T12:18:22;1.90;;;0.80;;
6013;SDS011;3035;49.928;8.410;2023-08-06T12:20:50;1.30;;;0.97;;
6013;SDS011;3035;49.928;8.410;2023-08-06T12:23:19;1.20;;;0.77;;
6013;SDS011;3035;49.928;8.410;2023-08-06T12:25:47;2.90;;;0.80;;
6013;SDS011;3035;49.928;8.410;2023-08-06T12:28:15;1.20;;;0.90;;
6013;SDS011;3035;49.928;8.410;2023-08-06T12:30:43;1.60;;;0.80;;
6013;SDS011;3035;49.928;8.410;2023-08-06T12:33:11;5.17;;;0.90;;
6013;SDS011;3035;49.928;8.410;2023-08-06T12:35:40;1.00;;;0.80;;
6013;SDS011;3035;49.928;8.410;2023-08-06T12:38:08;3.57;;;1.27;;
6013;SDS011;3035;49.928;8.410;2023-08-06T12:40:36;2.00;;;0.90;;
6013;SDS011;3035;49.928;8.410;2023-08-06T12:43:04;2.60;;;1.07;;
6013;SDS011;3035;49.928;8.410;2023-08-06T12:45:33;1.97;;;0.87;;
6013;SDS011;3035;49.928;8.410;2023-08-06T12:48:01;1.23;;;0.80;;
6013;SDS011;3035;49.928;8.410;2023-08-06T12:50:29;2.33;;;1.00;;
6013;SDS011;3035;49.928;8.410;2023-08-06T12:52:57;1.10;;;0.80;;
6013;SDS011;3035;49.928;8.410;2023-08-06T12:55:25;2.80;;;0.87;;
6013;SDS011;3035;49.928;8.410;2023-08-06T12:57:54;1.70;;;0.90;;
6013;SDS011;3035;49.928;8.410;2023-08-06T13:00:22;1.30;;;1.00;;
6013;SDS011;3035;49.928;8.410;2023-08-06T13:02:50;2.30;;;0.90;;
6013;SDS011;3035;49.928;8.410;2023-08-06T13:05:18;6.40;;;1.00;;
6013;SDS011;3035;49.928;8.410;2023-08-06T13:07:46;1.63;;;0.80;;
6013;SDS011;3035;49.928;8.410;2023-08-06T13:10:15;1.40;;;1.00;;
6013;SDS011;3035;49.928;8.410;2023-08-06T13:12:43;1.40;;;1.30;;
6013;SDS011;3035;49.928;8.410;2023-08-06T13:15:11;4.93;;;1.30;;
6013;SDS011;3035;49.928;8.410;2023-08-06T13:17:39;3.13;;;1.23;;
6013;SDS011;3035;49.928;8.410;2023-08-06T13:20:08;3.33;;;1.10;;
6013;SDS011;3035;49.928;8.410;2023-08-06T13:22:36;1.63;;;1.07;;
6013;SDS011;3035;49.928;8.410;2023-08-06T13:25:04;1.10;;;0.90;;
6013;SDS011;3035;49.928;8.410;2023-08-06T13:27:33;1.30;;;0.97;;
6013;SDS011;3035;49.928;8.410;2023-08-06T13:30:01;2.60;;;0.83;;
6013;SDS011;3035;49.928;8.410;2023-08-06T13:32:29;1.23;;;0.97;;
6013;SDS011;3035;49.928;8.410;2023-08-06T13:34:57;7.43;;;1.00;;
6013;SDS011;3035;49.928;8.410;2023-08-06T13:37:25;3.63;;;0.70;;
6013;SDS011;3035;49.928;8.410;2023-08-06T13:39:54;0.90;;;0.70;;
6013;SDS011;3035;49.928;8.410;2023-08-06T13:42:22;3.43;;;0.73;;
6013;SDS011;3035;49.928;8.410;2023-08-06T13:44:50;1.20;;;0.70;;
6013;SDS011;3035;49.928;8.410;2023-08-06T13:47:18;1.20;;;0.97;;
6013;SDS011;3035;49.928;8.410;2023-08-06T13:49:46;3.50;;;0.80;;
6013;SDS011;3035;49.928;8.410;2023-08-06T13:52:15;1.30;;;0.73;;
6013;SDS011;3035;49.928;8.410;2023-08-06T13:54:43;1.00;;;0.70;;
6013;SDS011;3035;49.928;8.410;2023-08-06T13:57:11;2.40;;;0.90;;
6013;SDS011;3035;49.928;8.410;2023-08-06T13:59:39;1.00;;;0.60;;
6013;SDS011;3035;49.928;8.410;2023-08-06T14:02:08;1.10;;;0.97;;
6013;SDS011;3035;49.928;8.410;2023-08-06T14:04:36;1.80;;;0.90;;
6013;SDS011;3035;49.928;8.410;2023-08-06T14:07:04;1.80;;;1.00;;
6013;SDS011;3035;49.928;8.410;2023-08-06T14:09:32;3.73;;;0.90;;
6013;SDS011;3035;49.928;8.410;2023-08-06T14:12:00;2.33;;;1.00;;
6013;SDS011;3035;49.928;8.410;2023-08-06T14:14:29;3.97;;;0.73;;
6013;SDS011;3035;49.928;8.410;2023-08-06T14:16:57;3.63;;;0.70;;
6013;SDS011;3035;49.928;8.410;2023-08-06T14:19:25;3.53;;;0.80;;
6013;SDS011;3035;49.928;8.410;2023-08-06T14:21:53;1.00;;;0.67;;
6013;SDS011;3035;49.928;8.410;2023-08-06T14:24:21;1.50;;;0.80;;
6013;SDS011;3035;49.928;8.410;2023-08-06T14:26:50;1.70;;;0.73;;
6013;SDS011;3035;49.928;8.410;2023-08-06T14:29:18;1.80;;;1.00;;
6013;SDS011;3035;49.928;8.410;2023-08-06T14:31:46;1.30;;;0.70;;
6013;SDS011;3035;49.928;8.410;2023-08-06T14:34:14;1.00;;;0.70;;
6013;SDS011;3035;49.928;8.410;2023-08-06T14:36:42;1.83;;;1.00;;
6013;SDS011;3035;49.928;8.410;2023-08-06T14:39:11;1.00;;;0.70;;
6013;SDS011;3035;49.928;8.410;2023-08-06T14:41:39;1.00;;;0.60;;
6013;SDS011;3035;49.928;8.410;2023-08-06T14:44:07;8.73;;;0.80;;
6013;SDS011;3035;49.928;8.410;2023-08-06T14:46:35;1.00;;;0.60;;
6013;SDS011;3035;49.928;8.410;2023-08-06T14:49:03;1.97;;;0.90;;
6013;SDS011;3035;49.928;8.410;2023-08-06T14:51:32;1.43;;;0.70;;
6013;SDS011;3035;49.928;8.410;2023-08-06T14:54:00;0.90;;;0.60;;
6013;SDS011;3035;49.928;8.410;2023-08-06T14:56:28;1.27;;;0.70;;
6013;SDS011;3035;49.928;8.410;2023-08-06T14:58:56;1.00;;;0.67;;
6013;SDS011;3035;49.928;8.410;2023-08-06T15:01:24;1.80;;;0.70;;
6013;SDS011;3035;49.928;8.410;2023-08-06T15:03:53;2.70;;;0.70;;
6013;SDS011;3035;49.928;8.410;2023-08-06T15:06:21;1.20;;;0.60;;
6013;SDS011;3035;49.928;8.410;2023-08-06T15:08:49;1.93;;;0.60;;
6013;SDS011;3035;49.928;8.410;2023-08-06T15:11:17;0.90;;;0.70;;
6013;SDS011;3035;49.928;8.410;2023-08-06T15:13:46;1.10;;;0.77;;
6013;SDS011;3035;49.928;8.410;2023-08-06T15:16:14;2.53;;;0.80;;
6013;SDS011;3035;49.928;8.410;2023-08-06T15:18:42;0.90;;;0.67;;
6013;SDS011;3035;49.928;8.410;2023-08-06T15:21:10;1.00;;;0.70;;
6013;SDS011;3035;49.928;8.410;2023-08-06T15:23:38;0.90;;;0.70;;
6013;SDS011;3035;49.928;8.410;2023-08-06T15:26:07;1.20;;;0.60;;
6013;SDS011;3035;49.928;8.410;2023-08-06T15:28:35;2.00;;;0.70;;
6013;SDS011;3035;49.928;8.410;2023-08-06T15:31:03;0.90;;;0.63;;
6013;SDS011;3035;49.928;8.410;2023-08-06T15:33:31;0.90;;;0.63;;